• Join FlightAware (Why Join?)
  • Login
  • US Flag 
08:55PM EDT


 

Airport Tracker/Info


-or-


 

Live Flight TrackerFlight Track Log ✈ UCA4840 ✈ 31-Jul-2014 ✈ KALB - KEWR

Flight Track Log - Related Links

Times and Time Zones

All times are in EDT time to prevent confusion due to time zone crossing. See the UCA4840 flight status page for this flight to view local times or setup timezone preferences in your user account.

Time Position Orientation Groundspeed Altitude Reporting Facility
EDT Latitude Longitude Course Direction KTS MPH feet Rate Location/Type
07:12PM 42.7700 -73.8067 359° North 139 160 1,100  Level Boston Center
07:12PM 42.7892 -73.8072 359° North 141 162 1,600 1,200 Climbing Boston Center
07:13PM 42.8164 -73.8456 314° West 174 200 3,000 1,500 Climbing Boston Center
07:14PM 42.8081 -73.8714 246° West 165 190 3,800 1,500 Climbing Boston Center
07:14PM 42.7967 -73.9061 246° West 164 189 4,600 1,080 Climbing Boston Center
07:15PM 42.7797 -73.9161 203° Southwest 175 201 4,900 840 Climbing Boston Center
07:15PM 42.7486 -73.9333 202° Southwest 201 231 5,500 1,140 Climbing Boston Center
07:16PM 42.7258 -73.9419 196° South 190 219 6,100 1,380 Climbing Boston Center
07:16PM 42.6947 -73.9586 201° Southwest 198 228 6,900 1,080 Climbing Boston Center
07:17PM 42.6756 -73.9669 198° South 191 220 7,300 1,020 Climbing Boston Center
07:17PM 42.6425 -73.9847 202° Southwest 194 223 8,000 1,140 Climbing Boston Center
07:18PM 42.6206 -73.9939 197° South 192 221 8,500 1,200 Climbing Boston Center
07:18PM 42.5956 -74.0064 200° South 197 227 9,100 1,200 Climbing Boston Center
07:19PM 42.5694 -74.0192 200° South 194 223 9,800 840 Climbing Boston Center
07:19PM 42.5433 -74.0322 200° South 196 226 10,000 180 Climbing Boston Center
07:20PM 42.5150 -74.0469 201° Southwest 207 238 10,000 -120 Level Boston Center
07:20PM 42.4842 -74.0617 199° South 238 274 9,900 60 Descending Boston Center
07:21PM 42.4461 -74.0808 200° South 240 276 10,100 60 Climbing Boston Center
07:21PM 42.4244 -74.0933 203° Southwest 256 295 10,000 -120 Descending Boston Center
07:22PM 42.3803 -74.1133 198° South 247 284 10,000  Level Boston Center
07:23PM 42.3100 -74.1472 200° South 259 298 10,000  Level Boston Center
07:24PM 42.2392 -74.1828 200° South 255 293 10,000  Level Boston Center
07:25PM 42.1769 -74.2250 207° Southwest 252 290 10,000  Level Boston Center
07:26PM 42.1114 -74.2731 209° Southwest 251 289 10,000  Level Boston Center
07:27PM 42.0514 -74.3158 208° Southwest 248 285 10,000  Level Boston Center
07:28PM 41.9919 -74.3597 209° Southwest 247 284 10,000 -480 Level Boston Center
07:29PM 41.9250 -74.4083 208° Southwest 252 290 9,000 -480 Descending Boston Center
07:30PM 41.8628 -74.4536 208° Southwest 255 293 9,000 -300 Level Boston Center
07:31PM 41.7981 -74.4997 208° Southwest 248 285 8,400 -900 Descending Boston Center
07:32PM 41.7314 -74.5325 200° South 256 295 7,200 -720 Descending Boston Center
07:33PM 41.6556 -74.5450 187° South 258 297 7,000 -120 Descending Boston Center
07:34PM 41.5872 -74.5578 188° South 253 291 7,000  Level Boston Center
07:35PM 41.5186 -74.5711 188° South 252 290 7,000 -300 Level Boston Center
07:36PM 41.4433 -74.5856 188° South 252 290 6,400 -540 Descending Boston Center
07:37PM 41.3731 -74.6047 192° South 256 295 6,000 -300 Descending Boston Center
07:38PM 41.3011 -74.6189 188° South 262 302 5,800 -480 Descending Boston Center
07:40PM 41.2333 -74.5333 136° Southeast 274 315 5,000 -360 Descending New York TRACON
07:41PM 41.1833 -74.4667 135° Southeast 264 304 5,000  Level New York TRACON
07:42PM 41.1333 -74.4000 135° Southeast 260 299 5,000  Level New York TRACON
07:43PM 41.0667 -74.3333 143° Southeast 258 297 5,000  Level New York TRACON
07:44PM 41.0333 -74.2667 124° Southeast 251 289 5,000 -240 Level New York TRACON
07:45PM 41.0000 -74.1833 118° Southeast 243 280 4,600 -540 Descending New York TRACON
07:46PM 40.9667 -74.1000 118° Southeast 240 276 4,000 -480 Descending New York TRACON
07:47PM 40.9167 -74.0667 153° Southeast 228 262 3,700 -540 Descending New York TRACON
07:48PM 40.8667 -74.0667 180° South 197 227 3,000 -600 Descending New York TRACON
07:49PM 40.8167 -74.0833 194° South 192 221 2,600 -720 Descending New York TRACON
07:50PM 40.7667 -74.1167 207° Southwest 178 205 1,600 -900 Descending New York TRACON
07:51PM 40.7333 -74.1333 201° Southwest 154 177 800 -840 Descending New York TRACON
07:53PM 40.6833 -74.1667 208° Southwest  Level FlightAware Approximate
08:00PM 40.6925 -74.1687 208° Southwest  Level Estimated